Dotti J — WCAE — position and weather

sailwx.info

Track history (hours):
 
Tides and Currents Weather Stations Pressure Air Temp Water Temp Dewpoint Dewpoint Depression Visibility Wind Speed Wind Dir Waves Ship Positions

Dotti J

Owner: PRECON MARINE INC, CHESAPEAKE, VA. More information available from US FCC via Universal Licensing System and Coast Guard Vessel Documentation Center.

Last reported at 2018-Jun-13 16:50 UTC. Time now 2018-Jun-25 00:42 UTC.
Position N 36°46' W 076°18'.
Warning: this ship's position is 11 days out of date.

Length 20 m; draft 2.9 m.

Type: Tug. MMSI: 366880470.

Date/timePositionNaut miles runAvg speedWind from/ knotsBaromVisibWave heightAir tempDewpointWater temp
2018-Jun-13 16:50N 36°46' W 076°18'0 0.0
2018-Jun-13 16:30N 36°46' W 076°18'0 0.0
2018-Jun-13 15:58N 36°46' W 076°18'0 0.0
2018-Jun-13 15:30N 36°46' W 076°18'0 0.0
2018-Jun-13 15:00N 36°46' W 076°18'0 0.1
2018-Jun-13 14:30N 36°46' W 076°18'1 1.8
2018-Jun-13 14:00N 36°47' W 076°18'1 2.1
2018-Jun-13 13:30N 36°48' W 076°18'3 6.1
2018-Jun-13 12:59N 36°51' W 076°18'70 5.9
2018-Jun-13 01:13N 38°00' W 076°14'2 5.6
2018-Jun-13 00:56N 38°02' W 076°15'45 5.9
2018-Jun-12 17:20N 38°46' W 076°25'3 0.4
2018-Jun-12 10:49N 38°46' W 076°22'0 0.0
2018-Jun-12 10:17N 38°46' W 076°22'0 0.0
2018-Jun-12 09:48N 38°46' W 076°22'0 0.0
2018-Jun-12 09:03N 38°46' W 076°22'0 0.0
2018-Jun-12 08:59N 38°46' W 076°22'0 0.0
2018-Jun-12 08:29N 38°46' W 076°22'0 0.0
2018-Jun-12 07:59N 38°46' W 076°22'114 3.2
2018-Jun-10 20:29N 36°52' W 076°20'3 6.2
2018-Jun-10 20:00N 36°50' W 076°18'3 6.3
2018-Jun-10 19:30N 36°47' W 076°18'1 2.6
2018-Jun-10 19:00N 36°46' W 076°18'0 0.0
2018-Jun-10 18:30N 36°46' W 076°18'0 0.0
2018-Jun-10 18:00N 36°46' W 076°18'0 0.0
2018-Jun-10 17:30N 36°46' W 076°18'0 0.0
2018-Jun-10 17:00N 36°46' W 076°18'0 0.0
2018-Jun-10 16:30N 36°46' W 076°18'0 0.0
2018-Jun-10 16:00N 36°46' W 076°18'0 0.0
2018-Jun-10 15:30N 36°46' W 076°18'0 0.0
2018-Jun-10 15:00N 36°46' W 076°18'0 0.0
2018-Jun-10 14:00N 36°46' W 076°18'0 0.0
2018-Jun-10 13:30N 36°46' W 076°18'0 0.0
2018-Jun-10 13:00N 36°46' W 076°18'0 0.0
2018-Jun-10 12:30N 36°46' W 076°18'0 0.0
2018-Jun-10 12:00N 36°46' W 076°18'0 0.0
2018-Jun-10 11:30N 36°46' W 076°18'0 0.0
2018-Jun-10 11:00N 36°46' W 076°18'0 0.0
2018-Jun-10 10:30N 36°46' W 076°18'0 0.0
2018-Jun-10 10:01N 36°46' W 076°18'0 0.0
2018-Jun-10 09:30N 36°46' W 076°18'0 0.0
2018-Jun-10 09:00N 36°46' W 076°18'0 0.0
2018-Jun-10 08:30N 36°46' W 076°18'0 0.0
2018-Jun-10 08:00N 36°46' W 076°18'0 0.0
2018-Jun-10 07:30N 36°46' W 076°18'0 0.0
2018-Jun-10 07:00N 36°46' W 076°18'0 0.0
2018-Jun-10 06:30N 36°46' W 076°18'0 0.0
2018-Jun-10 06:00N 36°46' W 076°18'0 0.0
2018-Jun-10 05:30N 36°46' W 076°18'0 0.0
2018-Jun-10 05:00N 36°46' W 076°18'0 0.0
2018-Jun-10 04:30N 36°46' W 076°18'0 0.0
2018-Jun-10 04:00N 36°46' W 076°18'0 0.0
2018-Jun-10 03:30N 36°46' W 076°18'0 0.0
2018-Jun-10 03:00N 36°46' W 076°18'0 0.0
2018-Jun-10 02:30N 36°46' W 076°18'0 0.0
2018-Jun-10 02:00N 36°46' W 076°18'0 0.0
2018-Jun-10 01:30N 36°46' W 076°18'0 0.0
2018-Jun-10 01:00N 36°46' W 076°18'0 0.0
2018-Jun-10 00:30N 36°46' W 076°18'0 0.0
2018-Jun-10 00:00N 36°46' W 076°18'0 0.0
2018-Jun-09 23:30N 36°46' W 076°18'0 0.0
2018-Jun-09 23:00N 36°46' W 076°18'0 0.0
2018-Jun-09 22:30N 36°46' W 076°18'0 0.0
2018-Jun-09 22:00N 36°46' W 076°18'0 0.0
2018-Jun-09 21:30N 36°46' W 076°18'0 0.0
2018-Jun-09 21:00N 36°46' W 076°18'0 0.0
2018-Jun-09 20:30N 36°46' W 076°18'0 0.0
2018-Jun-09 20:00N 36°46' W 076°18'0 0.0
2018-Jun-09 19:30N 36°46' W 076°18'0 0.0
2018-Jun-09 19:00N 36°46' W 076°18'0 0.0
2018-Jun-09 18:30N 36°46' W 076°18'0 0.0
2018-Jun-09 18:00N 36°46' W 076°18'0 0.0
2018-Jun-09 17:30N 36°46' W 076°18'0 0.0
2018-Jun-09 17:00N 36°46' W 076°18'0 0.0
2018-Jun-09 16:30N 36°46' W 076°18'0 0.0
2018-Jun-09 16:00N 36°46' W 076°18'0 0.0
2018-Jun-09 15:00N 36°46' W 076°18'0 0.0
2018-Jun-09 14:31N 36°46' W 076°18'0 0.0
2018-Jun-09 14:00N 36°46' W 076°18'0 0.0
2018-Jun-09 13:30N 36°46' W 076°18'0 0.0
2018-Jun-09 13:00N 36°46' W 076°18'0 0.0
2018-Jun-09 12:30N 36°46' W 076°18'0 0.0
2018-Jun-09 12:00N 36°46' W 076°18'0 0.0
2018-Jun-09 11:30N 36°46' W 076°18'0 0.0
2018-Jun-09 11:00N 36°46' W 076°18'0 0.0
2018-Jun-09 10:30N 36°46' W 076°18'0 0.0
2018-Jun-09 10:00N 36°46' W 076°18'0 0.0
2018-Jun-09 09:30N 36°46' W 076°18'0 0.0
2018-Jun-09 09:00N 36°46' W 076°18'0 0.0
2018-Jun-09 08:30N 36°46' W 076°18'0 0.0
2018-Jun-09 08:01N 36°46' W 076°18'0 0.0
2018-Jun-09 07:30N 36°46' W 076°18'0 0.0
2018-Jun-09 07:00N 36°46' W 076°18'0 0.0
2018-Jun-09 06:30N 36°46' W 076°18'0 0.0
2018-Jun-09 06:00N 36°46' W 076°18'0 0.0
2018-Jun-09 05:30N 36°46' W 076°18'0 0.0
2018-Jun-09 05:00N 36°46' W 076°18'0 0.0
2018-Jun-09 04:30N 36°46' W 076°18'0 0.0
2018-Jun-09 04:00N 36°46' W 076°18'0 0.0
2018-Jun-09 03:30N 36°46' W 076°18'0 0.0
2018-Jun-09 03:00N 36°46' W 076°18'0 0.0
2018-Jun-09 02:30N 36°46' W 076°18'0 0.0
2018-Jun-09 02:00N 36°46' W 076°18'0 0.0
2018-Jun-09 01:30N 36°46' W 076°18'0 0.0
2018-Jun-09 01:00N 36°46' W 076°18'0 0.0
2018-Jun-09 00:30N 36°46' W 076°18'0 0.0
2018-Jun-09 00:00N 36°46' W 076°18'0 0.0
2018-Jun-08 23:30N 36°46' W 076°18'0 0.0
2018-Jun-08 23:00N 36°46' W 076°18'0 0.0
2018-Jun-08 22:30N 36°46' W 076°18'0 0.0
2018-Jun-08 22:00N 36°46' W 076°18'0 0.0
2018-Jun-08 21:30N 36°46' W 076°18'0 0.0
2018-Jun-08 21:00N 36°46' W 076°18'0 0.0
2018-Jun-08 20:30N 36°46' W 076°18'0 0.0
2018-Jun-08 20:00N 36°46' W 076°18'0 0.0
2018-Jun-08 19:30N 36°46' W 076°18'0 0.0
2018-Jun-08 19:00N 36°46' W 076°18'0 0.0
2018-Jun-08 18:30N 36°46' W 076°18'0 0.0
2018-Jun-08 18:00N 36°46' W 076°18'0 0.0
2018-Jun-08 17:30N 36°46' W 076°18'0 0.0
2018-Jun-08 17:00N 36°46' W 076°18'0 0.0
2018-Jun-08 16:30N 36°46' W 076°18'0 0.0
2018-Jun-08 16:00N 36°46' W 076°18'0 0.0
2018-Jun-08 15:30N 36°46' W 076°18'0 0.0
2018-Jun-08 15:00N 36°46' W 076°18'0 0.0
2018-Jun-08 14:30N 36°46' W 076°18'0 0.0
2018-Jun-08 14:00N 36°46' W 076°18'0 0.0
2018-Jun-08 13:30N 36°46' W 076°18'0 0.0
2018-Jun-08 13:00N 36°46' W 076°18'0 0.0
2018-Jun-08 12:30N 36°46' W 076°18'0 0.0
2018-Jun-08 12:00N 36°46' W 076°18'0 0.0
2018-Jun-08 11:30N 36°46' W 076°18'0 0.0
2018-Jun-08 11:00N 36°46' W 076°18'0 0.0
2018-Jun-08 10:30N 36°46' W 076°18'0 0.0
2018-Jun-08 10:00N 36°46' W 076°18'0 0.0
2018-Jun-08 09:30N 36°46' W 076°18'0 0.0
2018-Jun-08 09:00N 36°46' W 076°18'0 0.0
2018-Jun-08 08:30N 36°46' W 076°18'0 0.0
2018-Jun-08 08:00N 36°46' W 076°18'0 0.0
2018-Jun-08 07:31N 36°46' W 076°18'0 0.0
2018-Jun-08 07:00N 36°46' W 076°18'0 0.0
2018-Jun-08 06:30N 36°46' W 076°18'0 0.0
2018-Jun-08 06:00N 36°46' W 076°18'0 0.0
2018-Jun-08 05:30N 36°46' W 076°18'0 0.0
2018-Jun-08 05:00N 36°46' W 076°18'0 0.0
2018-Jun-08 04:30N 36°46' W 076°18'0 0.0
2018-Jun-08 04:00N 36°46' W 076°18'0 0.0
2018-Jun-08 03:30N 36°46' W 076°18'0 0.0
2018-Jun-08 03:01N 36°46' W 076°18'0 0.0
2018-Jun-08 02:30N 36°46' W 076°18'0 0.0
2018-Jun-08 02:00N 36°46' W 076°18'0 0.0
2018-Jun-08 01:30N 36°46' W 076°18'0 0.0
2018-Jun-08 01:00N 36°46' W 076°18'0 0.0
2018-Jun-08 00:30N 36°46' W 076°18'0 0.0
2018-Jun-08 00:00N 36°46' W 076°18'0 0.0
2018-Jun-07 23:30N 36°46' W 076°18'0 0.0
2018-Jun-07 23:00N 36°46' W 076°18'0 0.0
2018-Jun-07 22:30N 36°46' W 076°18'0 0.0
2018-Jun-07 22:00N 36°46' W 076°18'0 0.0
2018-Jun-07 21:30N 36°46' W 076°18'0 0.0
2018-Jun-07 21:00N 36°46' W 076°18'0 0.0
2018-Jun-07 20:30N 36°46' W 076°18'0 0.0
2018-Jun-07 20:00N 36°46' W 076°18'0 0.0
2018-Jun-07 19:30N 36°46' W 076°18'0 0.0
2018-Jun-07 19:00N 36°46' W 076°18'0 0.0
2018-Jun-07 18:30N 36°46' W 076°18'0 0.0
2018-Jun-07 18:00N 36°46' W 076°18'0 0.0
2018-Jun-07 17:30N 36°46' W 076°18'0 0.0
2018-Jun-07 17:00N 36°46' W 076°18'0 0.0
2018-Jun-07 16:30N 36°46' W 076°18'0 0.0
2018-Jun-07 16:00N 36°46' W 076°18'0 0.0
2018-Jun-07 15:30N 36°46' W 076°18'0 0.0
2018-Jun-07 15:00N 36°46' W 076°18'0 0.0
2018-Jun-07 14:30N 36°46' W 076°18'0 0.0
2018-Jun-07 14:00N 36°46' W 076°18'0 0.0
2018-Jun-07 13:30N 36°46' W 076°18'0 0.0
2018-Jun-07 13:00N 36°46' W 076°18'0 0.0
2018-Jun-07 12:30N 36°46' W 076°18'0 0.0
2018-Jun-07 12:00N 36°46' W 076°18'0 0.0
2018-Jun-07 11:30N 36°46' W 076°18'0 0.0
2018-Jun-07 11:00N 36°46' W 076°18'0 0.0
2018-Jun-07 10:30N 36°46' W 076°18'0 0.0
2018-Jun-07 10:00N 36°46' W 076°18'0 0.0
2018-Jun-07 09:30N 36°46' W 076°18'0 0.0
2018-Jun-07 09:00N 36°46' W 076°18'0 0.0
2018-Jun-07 08:30N 36°46' W 076°18'0 0.0
2018-Jun-07 08:00N 36°46' W 076°18'0 0.0
2018-Jun-07 07:30N 36°46' W 076°18'0 0.0
2018-Jun-07 07:00N 36°46' W 076°18'0 0.0
2018-Jun-07 06:30N 36°46' W 076°18'0 0.0
2018-Jun-07 06:00N 36°46' W 076°18'0 0.0
2018-Jun-07 05:30N 36°46' W 076°18'0 0.0
2018-Jun-07 05:00N 36°46' W 076°18'0 0.0
2018-Jun-07 04:30N 36°46' W 076°18'0 0.0
2018-Jun-07 04:00N 36°46' W 076°18'0 0.0
2018-Jun-07 03:30N 36°46' W 076°18'0 0.0
2018-Jun-07 03:00N 36°46' W 076°18'0 0.0
2018-Jun-07 02:30N 36°46' W 076°18'0 0.0
2018-Jun-07 02:00N 36°46' W 076°18'0 0.0
2018-Jun-07 01:30N 36°46' W 076°18'0 0.0
2018-Jun-07 01:00N 36°46' W 076°18'0 0.0
2018-Jun-07 00:30N 36°46' W 076°18'0 0.0
2018-Jun-07 00:00N 36°46' W 076°18'0 0.0
2018-Jun-06 23:30N 36°46' W 076°18'0 0.0
2018-Jun-06 23:00N 36°46' W 076°18'0 0.0
2018-Jun-06 22:30N 36°46' W 076°18'0 0.0
2018-Jun-06 22:00N 36°46' W 076°18'0 0.0
2018-Jun-06 21:30N 36°46' W 076°18'0 0.0
2018-Jun-06 21:00N 36°46' W 076°18'0 0.0
2018-Jun-06 20:30N 36°46' W 076°18'0 0.0
2018-Jun-06 20:00N 36°46' W 076°18'0 0.0
2018-Jun-06 19:30N 36°46' W 076°18'0 0.0
2018-Jun-06 19:00N 36°46' W 076°18'0 0.0
2018-Jun-06 18:30N 36°46' W 076°18'0 0.0
2018-Jun-06 18:00N 36°46' W 076°18'0 0.0
2018-Jun-06 17:30N 36°46' W 076°18'0 0.0
2018-Jun-06 17:00N 36°46' W 076°18'0 0.0
2018-Jun-06 16:30N 36°46' W 076°18'0 0.0
2018-Jun-06 16:00N 36°46' W 076°18'0 0.0
2018-Jun-06 15:30N 36°46' W 076°18'0 0.0
2018-Jun-06 15:00N 36°46' W 076°18'0 0.0
2018-Jun-06 14:30N 36°46' W 076°18'0 0.0
2018-Jun-06 14:00N 36°46' W 076°18'0 0.0
2018-Jun-06 13:30N 36°46' W 076°18'0 0.0
2018-Jun-06 13:00N 36°46' W 076°18'0 0.0
2018-Jun-06 12:30N 36°46' W 076°18'0 0.0
2018-Jun-06 12:00N 36°46' W 076°18'0 0.0
2018-Jun-06 11:30N 36°46' W 076°18'0 0.0
2018-Jun-06 11:00N 36°46' W 076°18'0 0.0
2018-Jun-06 10:30N 36°46' W 076°18'0 0.0
2018-Jun-06 10:00N 36°46' W 076°18'0 0.0
2018-Jun-06 09:30N 36°46' W 076°18'0 0.0
2018-Jun-06 09:00N 36°46' W 076°18'0 0.0
2018-Jun-06 08:30N 36°46' W 076°18'0 0.0
2018-Jun-06 08:00N 36°46' W 076°18'0 0.0
2018-Jun-06 07:30N 36°46' W 076°18'0 0.0
2018-Jun-06 07:00N 36°46' W 076°18'0 0.0
2018-Jun-06 06:30N 36°46' W 076°18'0 0.0
2018-Jun-06 06:00N 36°46' W 076°18'0 0.0
2018-Jun-06 05:30N 36°46' W 076°18'0 0.0
2018-Jun-06 05:00N 36°46' W 076°18'0 0.0
2018-Jun-06 04:30N 36°46' W 076°18'0 0.0
2018-Jun-06 04:00N 36°46' W 076°18'0 0.0
2018-Jun-06 03:30N 36°46' W 076°18'0 0.0
2018-Jun-06 03:00N 36°46' W 076°18'0 0.0
2018-Jun-06 02:30N 36°46' W 076°18'0 0.0
2018-Jun-06 02:00N 36°46' W 076°18'0 0.0
2018-Jun-06 01:30N 36°46' W 076°18'0 0.0
2018-Jun-06 01:01N 36°46' W 076°18'0 0.0
2018-Jun-06 00:30N 36°46' W 076°18'0 0.0
2018-Jun-06 00:00N 36°46' W 076°18'0 0.0
2018-Jun-05 23:30N 36°46' W 076°18'0 0.0
2018-Jun-05 23:00N 36°46' W 076°18'0 0.0
2018-Jun-05 22:30N 36°46' W 076°18'0 0.0
2018-Jun-05 22:00N 36°46' W 076°18'0 0.0
2018-Jun-05 21:30N 36°46' W 076°18'0 0.0
2018-Jun-05 21:00N 36°46' W 076°18'0 0.0
2018-Jun-05 20:30N 36°46' W 076°18'0 0.0
2018-Jun-05 20:00N 36°46' W 076°18'0 0.0
2018-Jun-05 19:30N 36°46' W 076°18'0 0.0
2018-Jun-05 19:00N 36°46' W 076°18'0 0.0
2018-Jun-05 18:30N 36°46' W 076°18'0 0.0
2018-Jun-05 18:00N 36°46' W 076°18'0 0.0
2018-Jun-05 17:30N 36°46' W 076°18'0 0.0
2018-Jun-05 17:00N 36°46' W 076°18'0 0.0
2018-Jun-05 16:30N 36°46' W 076°18'0 0.0
2018-Jun-05 16:00N 36°46' W 076°18'0 0.0
2018-Jun-05 15:30N 36°46' W 076°18'0 0.0
2018-Jun-05 15:00N 36°46' W 076°18'0 0.0
2018-Jun-05 14:30N 36°46' W 076°18'0 0.0
2018-Jun-05 14:00N 36°46' W 076°18'0 0.0
2018-Jun-05 13:30N 36°46' W 076°18'0 0.0
2018-Jun-05 13:00N 36°46' W 076°18'0 0.0
2018-Jun-05 12:30N 36°46' W 076°18'0 0.0
2018-Jun-05 12:00N 36°46' W 076°18'0 0.0
2018-Jun-05 11:30N 36°46' W 076°18'0 0.0
2018-Jun-05 11:00N 36°46' W 076°18'0 0.0
2018-Jun-05 10:31N 36°46' W 076°18'0 0.0
2018-Jun-05 10:00N 36°46' W 076°18'0 0.0
2018-Jun-05 09:30N 36°46' W 076°18'0 0.0
2018-Jun-05 09:00N 36°46' W 076°18'0 0.0
2018-Jun-05 08:30N 36°46' W 076°18'0 0.0
2018-Jun-05 08:00N 36°46' W 076°18'0 0.0
2018-Jun-05 07:30N 36°46' W 076°18'0 0.0
2018-Jun-05 07:00N 36°46' W 076°18'0 0.0
2018-Jun-05 06:30N 36°46' W 076°18'0 0.0
2018-Jun-05 06:00N 36°46' W 076°18'0 0.0
2018-Jun-05 05:30N 36°46' W 076°18'0 0.0
2018-Jun-05 05:00N 36°46' W 076°18'0 0.0
2018-Jun-05 04:30N 36°46' W 076°18'0 0.0
2018-Jun-05 04:00N 36°46' W 076°18'0 0.0
2018-Jun-05 03:30N 36°46' W 076°18'0 0.0
2018-Jun-05 03:00N 36°46' W 076°18'0 0.0
2018-Jun-05 02:30N 36°46' W 076°18'0 0.0
2018-Jun-05 02:00N 36°46' W 076°18'0 0.0
2018-Jun-05 01:30N 36°46' W 076°18'0 0.0
2018-Jun-05 01:00N 36°46' W 076°18'0 0.0
2018-Jun-05 00:30N 36°46' W 076°18'0 0.0
2018-Jun-05 00:00N 36°46' W 076°18'0 0.0
2018-Jun-04 23:30N 36°46' W 076°18'0 0.0
2018-Jun-04 23:00N 36°46' W 076°18'0 0.0
2018-Jun-04 22:30N 36°46' W 076°18'0 0.0
2018-Jun-04 22:00N 36°46' W 076°18'0 0.0
2018-Jun-04 21:30N 36°46' W 076°18'0 0.0
2018-Jun-04 21:00N 36°46' W 076°18'0 0.0
2018-Jun-04 20:30N 36°46' W 076°18'0 0.0
2018-Jun-04 20:00N 36°46' W 076°18'0 0.0
2018-Jun-04 19:30N 36°46' W 076°18'0 0.0
2018-Jun-04 19:00N 36°46' W 076°18'0 0.0
2018-Jun-04 18:30N 36°46' W 076°18'0 0.0
2018-Jun-04 18:00N 36°46' W 076°18'0 0.0
2018-Jun-04 17:30N 36°46' W 076°18'0 0.0
2018-Jun-04 17:00N 36°46' W 076°18'0 0.0
2018-Jun-04 16:30N 36°46' W 076°18'0 0.0
2018-Jun-04 16:00N 36°46' W 076°18'0 0.0
2018-Jun-04 15:30N 36°46' W 076°18'0 0.0
2018-Jun-04 15:00N 36°46' W 076°18'0 0.0
2018-Jun-04 14:30N 36°46' W 076°18'0 0.0
2018-Jun-04 14:00N 36°46' W 076°18'0 0.0
2018-Jun-04 13:30N 36°46' W 076°18'0 0.0
2018-Jun-04 13:00N 36°46' W 076°18'0 0.0
2018-Jun-04 12:30N 36°46' W 076°18'0 0.0
2018-Jun-04 12:00N 36°46' W 076°18'0 0.0
2018-Jun-04 11:30N 36°46' W 076°18'0 0.0
2018-Jun-04 11:00N 36°46' W 076°18'0 0.0
2018-Jun-04 10:30N 36°46' W 076°18'0 0.0
2018-Jun-04 10:00N 36°46' W 076°18'0 0.0
2018-Jun-04 09:30N 36°46' W 076°18'0 0.0
2018-Jun-04 09:00N 36°46' W 076°18'0 0.0
2018-Jun-04 08:30N 36°46' W 076°18'0 0.0
2018-Jun-04 08:00N 36°46' W 076°18'0 0.0
2018-Jun-04 07:30N 36°46' W 076°18'0 0.0
2018-Jun-04 07:00N 36°46' W 076°18'0 0.0
2018-Jun-04 06:30N 36°46' W 076°18'0 0.0
2018-Jun-04 06:00N 36°46' W 076°18'0 0.0
2018-Jun-04 05:30N 36°46' W 076°18'0 0.0
2018-Jun-04 05:00N 36°46' W 076°18'0 0.0
2018-Jun-04 04:30N 36°46' W 076°18'0 0.0
2018-Jun-04 04:00N 36°46' W 076°18'0 0.0
2018-Jun-04 03:30N 36°46' W 076°18'0 0.0
2018-Jun-04 03:00N 36°46' W 076°18'0 0.0
2018-Jun-04 02:30N 36°46' W 076°18'0 0.0
2018-Jun-04 02:00N 36°46' W 076°18'0 0.0
2018-Jun-04 01:30N 36°46' W 076°18'0 0.0
2018-Jun-04 01:00N 36°46' W 076°18'0 0.0
2018-Jun-04 00:30N 36°46' W 076°18'0 0.0
2018-Jun-04 00:00N 36°46' W 076°18'0 0.0
2018-Jun-03 23:30N 36°46' W 076°18'0 0.0
2018-Jun-03 23:00N 36°46' W 076°18'0 0.0
2018-Jun-03 22:30N 36°46' W 076°18'0 0.0
2018-Jun-03 22:00N 36°46' W 076°18'0 0.0
2018-Jun-03 21:30N 36°46' W 076°18'0 0.0
2018-Jun-03 21:00N 36°46' W 076°18'0 0.0
2018-Jun-03 20:30N 36°46' W 076°18'0 0.0
2018-Jun-03 20:00N 36°46' W 076°18'0 0.0
2018-Jun-03 19:30N 36°46' W 076°18'0 0.0
2018-Jun-03 19:00N 36°46' W 076°18'0 0.0
2018-Jun-03 18:30N 36°46' W 076°18'0 0.0
2018-Jun-03 18:00N 36°46' W 076°18'0 0.0
2018-Jun-03 17:30N 36°46' W 076°18'0 0.0
2018-Jun-03 17:00N 36°46' W 076°18'  
Track history (hours):
 
Tides and Currents Weather Stations Pressure Air Temp Water Temp Dewpoint Dewpoint Depression Visibility Wind Speed Wind Dir Waves Ship Positions

Dotti J

Owner: PRECON MARINE INC, CHESAPEAKE, VA. More information available from US FCC via Universal Licensing System and Coast Guard Vessel Documentation Center.

Last reported at 2018-Jun-13 16:50 UTC. Time now 2018-Jun-25 00:42 UTC.
Position N 36°46' W 076°18'.
Warning: this ship's position is 11 days out of date.

Length 20 m; draft 2.9 m.

Type: Tug. MMSI: 366880470.

Date/timePositionNaut miles runAvg speedWind from/ knotsBaromVisibWave heightAir tempDewpointWater temp
2018-Jun-13 16:50N 36°46' W 076°18'0 0.0
2018-Jun-13 16:30N 36°46' W 076°18'0 0.0
2018-Jun-13 15:58N 36°46' W 076°18'0 0.0
2018-Jun-13 15:30N 36°46' W 076°18'0 0.0
2018-Jun-13 15:00N 36°46' W 076°18'0 0.1
2018-Jun-13 14:30N 36°46' W 076°18'1 1.8
2018-Jun-13 14:00N 36°47' W 076°18'1 2.1
2018-Jun-13 13:30N 36°48' W 076°18'3 6.1
2018-Jun-13 12:59N 36°51' W 076°18'70 5.9
2018-Jun-13 01:13N 38°00' W 076°14'2 5.6
2018-Jun-13 00:56N 38°02' W 076°15'45 5.9
2018-Jun-12 17:20N 38°46' W 076°25'3 0.4
2018-Jun-12 10:49N 38°46' W 076°22'0 0.0
2018-Jun-12 10:17N 38°46' W 076°22'0 0.0
2018-Jun-12 09:48N 38°46' W 076°22'0 0.0
2018-Jun-12 09:03N 38°46' W 076°22'0 0.0
2018-Jun-12 08:59N 38°46' W 076°22'0 0.0
2018-Jun-12 08:29N 38°46' W 076°22'0 0.0
2018-Jun-12 07:59N 38°46' W 076°22'114 3.2
2018-Jun-10 20:29N 36°52' W 076°20'3 6.2
2018-Jun-10 20:00N 36°50' W 076°18'3 6.3
2018-Jun-10 19:30N 36°47' W 076°18'1 2.6
2018-Jun-10 19:00N 36°46' W 076°18'0 0.0
2018-Jun-10 18:30N 36°46' W 076°18'0 0.0
2018-Jun-10 18:00N 36°46' W 076°18'0 0.0
2018-Jun-10 17:30N 36°46' W 076°18'0 0.0
2018-Jun-10 17:00N 36°46' W 076°18'0 0.0
2018-Jun-10 16:30N 36°46' W 076°18'0 0.0
2018-Jun-10 16:00N 36°46' W 076°18'0 0.0
2018-Jun-10 15:30N 36°46' W 076°18'0 0.0
2018-Jun-10 15:00N 36°46' W 076°18'0 0.0
2018-Jun-10 14:00N 36°46' W 076°18'0 0.0
2018-Jun-10 13:30N 36°46' W 076°18'0 0.0
2018-Jun-10 13:00N 36°46' W 076°18'0 0.0
2018-Jun-10 12:30N 36°46' W 076°18'0 0.0
2018-Jun-10 12:00N 36°46' W 076°18'0 0.0
2018-Jun-10 11:30N 36°46' W 076°18'0 0.0
2018-Jun-10 11:00N 36°46' W 076°18'0 0.0
2018-Jun-10 10:30N 36°46' W 076°18'0 0.0
2018-Jun-10 10:01N 36°46' W 076°18'0 0.0
2018-Jun-10 09:30N 36°46' W 076°18'0 0.0
2018-Jun-10 09:00N 36°46' W 076°18'0 0.0
2018-Jun-10 08:30N 36°46' W 076°18'0 0.0
2018-Jun-10 08:00N 36°46' W 076°18'0 0.0
2018-Jun-10 07:30N 36°46' W 076°18'0 0.0
2018-Jun-10 07:00N 36°46' W 076°18'0 0.0
2018-Jun-10 06:30N 36°46' W 076°18'0 0.0
2018-Jun-10 06:00N 36°46' W 076°18'0 0.0
2018-Jun-10 05:30N 36°46' W 076°18'0 0.0
2018-Jun-10 05:00N 36°46' W 076°18'0 0.0
2018-Jun-10 04:30N 36°46' W 076°18'0 0.0
2018-Jun-10 04:00N 36°46' W 076°18'0 0.0
2018-Jun-10 03:30N 36°46' W 076°18'0 0.0
2018-Jun-10 03:00N 36°46' W 076°18'0 0.0
2018-Jun-10 02:30N 36°46' W 076°18'0 0.0
2018-Jun-10 02:00N 36°46' W 076°18'0 0.0
2018-Jun-10 01:30N 36°46' W 076°18'0 0.0
2018-Jun-10 01:00N 36°46' W 076°18'0 0.0
2018-Jun-10 00:30N 36°46' W 076°18'0 0.0
2018-Jun-10 00:00N 36°46' W 076°18'0 0.0
2018-Jun-09 23:30N 36°46' W 076°18'0 0.0
2018-Jun-09 23:00N 36°46' W 076°18'0 0.0
2018-Jun-09 22:30N 36°46' W 076°18'0 0.0
2018-Jun-09 22:00N 36°46' W 076°18'0 0.0
2018-Jun-09 21:30N 36°46' W 076°18'0 0.0
2018-Jun-09 21:00N 36°46' W 076°18'0 0.0
2018-Jun-09 20:30N 36°46' W 076°18'0 0.0
2018-Jun-09 20:00N 36°46' W 076°18'0 0.0
2018-Jun-09 19:30N 36°46' W 076°18'0 0.0
2018-Jun-09 19:00N 36°46' W 076°18'0 0.0
2018-Jun-09 18:30N 36°46' W 076°18'0 0.0
2018-Jun-09 18:00N 36°46' W 076°18'0 0.0
2018-Jun-09 17:30N 36°46' W 076°18'0 0.0
2018-Jun-09 17:00N 36°46' W 076°18'0 0.0
2018-Jun-09 16:30N 36°46' W 076°18'0 0.0
2018-Jun-09 16:00N 36°46' W 076°18'0 0.0
2018-Jun-09 15:00N 36°46' W 076°18'0 0.0
2018-Jun-09 14:31N 36°46' W 076°18'0 0.0
2018-Jun-09 14:00N 36°46' W 076°18'0 0.0
2018-Jun-09 13:30N 36°46' W 076°18'0 0.0
2018-Jun-09 13:00N 36°46' W 076°18'0 0.0
2018-Jun-09 12:30N 36°46' W 076°18'0 0.0
2018-Jun-09 12:00N 36°46' W 076°18'0 0.0
2018-Jun-09 11:30N 36°46' W 076°18'0 0.0
2018-Jun-09 11:00N 36°46' W 076°18'0 0.0
2018-Jun-09 10:30N 36°46' W 076°18'0 0.0
2018-Jun-09 10:00N 36°46' W 076°18'0 0.0
2018-Jun-09 09:30N 36°46' W 076°18'0 0.0
2018-Jun-09 09:00N 36°46' W 076°18'0 0.0
2018-Jun-09 08:30N 36°46' W 076°18'0 0.0
2018-Jun-09 08:01N 36°46' W 076°18'0 0.0
2018-Jun-09 07:30N 36°46' W 076°18'0 0.0
2018-Jun-09 07:00N 36°46' W 076°18'0 0.0
2018-Jun-09 06:30N 36°46' W 076°18'0 0.0
2018-Jun-09 06:00N 36°46' W 076°18'0 0.0
2018-Jun-09 05:30N 36°46' W 076°18'0 0.0
2018-Jun-09 05:00N 36°46' W 076°18'0 0.0
2018-Jun-09 04:30N 36°46' W 076°18'0 0.0
2018-Jun-09 04:00N 36°46' W 076°18'0 0.0
2018-Jun-09 03:30N 36°46' W 076°18'0 0.0
2018-Jun-09 03:00N 36°46' W 076°18'0 0.0
2018-Jun-09 02:30N 36°46' W 076°18'0 0.0
2018-Jun-09 02:00N 36°46' W 076°18'0 0.0
2018-Jun-09 01:30N 36°46' W 076°18'0 0.0
2018-Jun-09 01:00N 36°46' W 076°18'0 0.0
2018-Jun-09 00:30N 36°46' W 076°18'0 0.0
2018-Jun-09 00:00N 36°46' W 076°18'0 0.0
2018-Jun-08 23:30N 36°46' W 076°18'0 0.0
2018-Jun-08 23:00N 36°46' W 076°18'0 0.0
2018-Jun-08 22:30N 36°46' W 076°18'0 0.0
2018-Jun-08 22:00N 36°46' W 076°18'0 0.0
2018-Jun-08 21:30N 36°46' W 076°18'0 0.0
2018-Jun-08 21:00N 36°46' W 076°18'0 0.0
2018-Jun-08 20:30N 36°46' W 076°18'0 0.0
2018-Jun-08 20:00N 36°46' W 076°18'0 0.0
2018-Jun-08 19:30N 36°46' W 076°18'0 0.0
2018-Jun-08 19:00N 36°46' W 076°18'0 0.0
2018-Jun-08 18:30N 36°46' W 076°18'0 0.0
2018-Jun-08 18:00N 36°46' W 076°18'0 0.0
2018-Jun-08 17:30N 36°46' W 076°18'0 0.0
2018-Jun-08 17:00N 36°46' W 076°18'0 0.0
2018-Jun-08 16:30N 36°46' W 076°18'0 0.0
2018-Jun-08 16:00N 36°46' W 076°18'0 0.0
2018-Jun-08 15:30N 36°46' W 076°18'0 0.0
2018-Jun-08 15:00N 36°46' W 076°18'0 0.0
2018-Jun-08 14:30N 36°46' W 076°18'0 0.0
2018-Jun-08 14:00N 36°46' W 076°18'0 0.0
2018-Jun-08 13:30N 36°46' W 076°18'0 0.0
2018-Jun-08 13:00N 36°46' W 076°18'0 0.0
2018-Jun-08 12:30N 36°46' W 076°18'0 0.0
2018-Jun-08 12:00N 36°46' W 076°18'0 0.0
2018-Jun-08 11:30N 36°46' W 076°18'0 0.0
2018-Jun-08 11:00N 36°46' W 076°18'0 0.0
2018-Jun-08 10:30N 36°46' W 076°18'0 0.0
2018-Jun-08 10:00N 36°46' W 076°18'0 0.0
2018-Jun-08 09:30N 36°46' W 076°18'0 0.0
2018-Jun-08 09:00N 36°46' W 076°18'0 0.0
2018-Jun-08 08:30N 36°46' W 076°18'0 0.0
2018-Jun-08 08:00N 36°46' W 076°18'0 0.0
2018-Jun-08 07:31N 36°46' W 076°18'0 0.0
2018-Jun-08 07:00N 36°46' W 076°18'0 0.0
2018-Jun-08 06:30N 36°46' W 076°18'0 0.0
2018-Jun-08 06:00N 36°46' W 076°18'0 0.0
2018-Jun-08 05:30N 36°46' W 076°18'0 0.0
2018-Jun-08 05:00N 36°46' W 076°18'0 0.0
2018-Jun-08 04:30N 36°46' W 076°18'0 0.0
2018-Jun-08 04:00N 36°46' W 076°18'0 0.0
2018-Jun-08 03:30N 36°46' W 076°18'0 0.0
2018-Jun-08 03:01N 36°46' W 076°18'0 0.0
2018-Jun-08 02:30N 36°46' W 076°18'0 0.0
2018-Jun-08 02:00N 36°46' W 076°18'0 0.0
2018-Jun-08 01:30N 36°46' W 076°18'0 0.0
2018-Jun-08 01:00N 36°46' W 076°18'0 0.0
2018-Jun-08 00:30N 36°46' W 076°18'0 0.0
2018-Jun-08 00:00N 36°46' W 076°18'0 0.0
2018-Jun-07 23:30N 36°46' W 076°18'0 0.0
2018-Jun-07 23:00N 36°46' W 076°18'0 0.0
2018-Jun-07 22:30N 36°46' W 076°18'0 0.0
2018-Jun-07 22:00N 36°46' W 076°18'0 0.0
2018-Jun-07 21:30N 36°46' W 076°18'0 0.0
2018-Jun-07 21:00N 36°46' W 076°18'0 0.0
2018-Jun-07 20:30N 36°46' W 076°18'0 0.0
2018-Jun-07 20:00N 36°46' W 076°18'0 0.0
2018-Jun-07 19:30N 36°46' W 076°18'0 0.0
2018-Jun-07 19:00N 36°46' W 076°18'0 0.0
2018-Jun-07 18:30N 36°46' W 076°18'0 0.0
2018-Jun-07 18:00N 36°46' W 076°18'0 0.0
2018-Jun-07 17:30N 36°46' W 076°18'0 0.0
2018-Jun-07 17:00N 36°46' W 076°18'0 0.0
2018-Jun-07 16:30N 36°46' W 076°18'0 0.0
2018-Jun-07 16:00N 36°46' W 076°18'0 0.0
2018-Jun-07 15:30N 36°46' W 076°18'0 0.0
2018-Jun-07 15:00N 36°46' W 076°18'0 0.0
2018-Jun-07 14:30N 36°46' W 076°18'0 0.0
2018-Jun-07 14:00N 36°46' W 076°18'0 0.0
2018-Jun-07 13:30N 36°46' W 076°18'0 0.0
2018-Jun-07 13:00N 36°46' W 076°18'0 0.0
2018-Jun-07 12:30N 36°46' W 076°18'0 0.0
2018-Jun-07 12:00N 36°46' W 076°18'0 0.0
2018-Jun-07 11:30N 36°46' W 076°18'0 0.0
2018-Jun-07 11:00N 36°46' W 076°18'0 0.0
2018-Jun-07 10:30N 36°46' W 076°18'0 0.0
2018-Jun-07 10:00N 36°46' W 076°18'0 0.0
2018-Jun-07 09:30N 36°46' W 076°18'0 0.0
2018-Jun-07 09:00N 36°46' W 076°18'0 0.0
2018-Jun-07 08:30N 36°46' W 076°18'0 0.0
2018-Jun-07 08:00N 36°46' W 076°18'0 0.0
2018-Jun-07 07:30N 36°46' W 076°18'0 0.0
2018-Jun-07 07:00N 36°46' W 076°18'0 0.0
2018-Jun-07 06:30N 36°46' W 076°18'0 0.0
2018-Jun-07 06:00N 36°46' W 076°18'0 0.0
2018-Jun-07 05:30N 36°46' W 076°18'0 0.0
2018-Jun-07 05:00N 36°46' W 076°18'0 0.0
2018-Jun-07 04:30N 36°46' W 076°18'0 0.0
2018-Jun-07 04:00N 36°46' W 076°18'0 0.0
2018-Jun-07 03:30N 36°46' W 076°18'0 0.0
2018-Jun-07 03:00N 36°46' W 076°18'0 0.0
2018-Jun-07 02:30N 36°46' W 076°18'0 0.0
2018-Jun-07 02:00N 36°46' W 076°18'0 0.0
2018-Jun-07 01:30N 36°46' W 076°18'0 0.0
2018-Jun-07 01:00N 36°46' W 076°18'0 0.0
2018-Jun-07 00:30N 36°46' W 076°18'0 0.0
2018-Jun-07 00:00N 36°46' W 076°18'0 0.0
2018-Jun-06 23:30N 36°46' W 076°18'0 0.0
2018-Jun-06 23:00N 36°46' W 076°18'0 0.0
2018-Jun-06 22:30N 36°46' W 076°18'0 0.0
2018-Jun-06 22:00N 36°46' W 076°18'0 0.0
2018-Jun-06 21:30N 36°46' W 076°18'0 0.0
2018-Jun-06 21:00N 36°46' W 076°18'0 0.0
2018-Jun-06 20:30N 36°46' W 076°18'0 0.0
2018-Jun-06 20:00N 36°46' W 076°18'0 0.0
2018-Jun-06 19:30N 36°46' W 076°18'0 0.0
2018-Jun-06 19:00N 36°46' W 076°18'0 0.0
2018-Jun-06 18:30N 36°46' W 076°18'0 0.0
2018-Jun-06 18:00N 36°46' W 076°18'0 0.0
2018-Jun-06 17:30N 36°46' W 076°18'0 0.0
2018-Jun-06 17:00N 36°46' W 076°18'0 0.0
2018-Jun-06 16:30N 36°46' W 076°18'0 0.0
2018-Jun-06 16:00N 36°46' W 076°18'0 0.0
2018-Jun-06 15:30N 36°46' W 076°18'0 0.0
2018-Jun-06 15:00N 36°46' W 076°18'0 0.0
2018-Jun-06 14:30N 36°46' W 076°18'0 0.0
2018-Jun-06 14:00N 36°46' W 076°18'0 0.0
2018-Jun-06 13:30N 36°46' W 076°18'0 0.0
2018-Jun-06 13:00N 36°46' W 076°18'0 0.0
2018-Jun-06 12:30N 36°46' W 076°18'0 0.0
2018-Jun-06 12:00N 36°46' W 076°18'0 0.0
2018-Jun-06 11:30N 36°46' W 076°18'0 0.0
2018-Jun-06 11:00N 36°46' W 076°18'0 0.0
2018-Jun-06 10:30N 36°46' W 076°18'0 0.0
2018-Jun-06 10:00N 36°46' W 076°18'0 0.0
2018-Jun-06 09:30N 36°46' W 076°18'0 0.0
2018-Jun-06 09:00N 36°46' W 076°18'0 0.0
2018-Jun-06 08:30N 36°46' W 076°18'0 0.0
2018-Jun-06 08:00N 36°46' W 076°18'0 0.0
2018-Jun-06 07:30N 36°46' W 076°18'0 0.0
2018-Jun-06 07:00N 36°46' W 076°18'0 0.0
2018-Jun-06 06:30N 36°46' W 076°18'0 0.0
2018-Jun-06 06:00N 36°46' W 076°18'0 0.0
2018-Jun-06 05:30N 36°46' W 076°18'0 0.0
2018-Jun-06 05:00N 36°46' W 076°18'0 0.0
2018-Jun-06 04:30N 36°46' W 076°18'0 0.0
2018-Jun-06 04:00N 36°46' W 076°18'0 0.0
2018-Jun-06 03:30N 36°46' W 076°18'0 0.0
2018-Jun-06 03:00N 36°46' W 076°18'0 0.0
2018-Jun-06 02:30N 36°46' W 076°18'0 0.0
2018-Jun-06 02:00N 36°46' W 076°18'0 0.0
2018-Jun-06 01:30N 36°46' W 076°18'0 0.0
2018-Jun-06 01:01N 36°46' W 076°18'0 0.0
2018-Jun-06 00:30N 36°46' W 076°18'0 0.0
2018-Jun-06 00:00N 36°46' W 076°18'0 0.0
2018-Jun-05 23:30N 36°46' W 076°18'0 0.0
2018-Jun-05 23:00N 36°46' W 076°18'0 0.0
2018-Jun-05 22:30N 36°46' W 076°18'0 0.0
2018-Jun-05 22:00N 36°46' W 076°18'0 0.0
2018-Jun-05 21:30N 36°46' W 076°18'0 0.0
2018-Jun-05 21:00N 36°46' W 076°18'0 0.0
2018-Jun-05 20:30N 36°46' W 076°18'0 0.0
2018-Jun-05 20:00N 36°46' W 076°18'0 0.0
2018-Jun-05 19:30N 36°46' W 076°18'0 0.0
2018-Jun-05 19:00N 36°46' W 076°18'0 0.0
2018-Jun-05 18:30N 36°46' W 076°18'0 0.0
2018-Jun-05 18:00N 36°46' W 076°18'0 0.0
2018-Jun-05 17:30N 36°46' W 076°18'0 0.0
2018-Jun-05 17:00N 36°46' W 076°18'0 0.0
2018-Jun-05 16:30N 36°46' W 076°18'0 0.0
2018-Jun-05 16:00N 36°46' W 076°18'0 0.0
2018-Jun-05 15:30N 36°46' W 076°18'0 0.0
2018-Jun-05 15:00N 36°46' W 076°18'0 0.0
2018-Jun-05 14:30N 36°46' W 076°18'0 0.0
2018-Jun-05 14:00N 36°46' W 076°18'0 0.0
2018-Jun-05 13:30N 36°46' W 076°18'0 0.0
2018-Jun-05 13:00N 36°46' W 076°18'0 0.0
2018-Jun-05 12:30N 36°46' W 076°18'0 0.0
2018-Jun-05 12:00N 36°46' W 076°18'0 0.0
2018-Jun-05 11:30N 36°46' W 076°18'0 0.0
2018-Jun-05 11:00N 36°46' W 076°18'0 0.0
2018-Jun-05 10:31N 36°46' W 076°18'0 0.0
2018-Jun-05 10:00N 36°46' W 076°18'0 0.0
2018-Jun-05 09:30N 36°46' W 076°18'0 0.0
2018-Jun-05 09:00N 36°46' W 076°18'0 0.0
2018-Jun-05 08:30N 36°46' W 076°18'0 0.0
2018-Jun-05 08:00N 36°46' W 076°18'0 0.0
2018-Jun-05 07:30N 36°46' W 076°18'0 0.0
2018-Jun-05 07:00N 36°46' W 076°18'0 0.0
2018-Jun-05 06:30N 36°46' W 076°18'0 0.0
2018-Jun-05 06:00N 36°46' W 076°18'0 0.0
2018-Jun-05 05:30N 36°46' W 076°18'0 0.0
2018-Jun-05 05:00N 36°46' W 076°18'0 0.0
2018-Jun-05 04:30N 36°46' W 076°18'0 0.0
2018-Jun-05 04:00N 36°46' W 076°18'0 0.0
2018-Jun-05 03:30N 36°46' W 076°18'0 0.0
2018-Jun-05 03:00N 36°46' W 076°18'0 0.0
2018-Jun-05 02:30N 36°46' W 076°18'0 0.0
2018-Jun-05 02:00N 36°46' W 076°18'0 0.0
2018-Jun-05 01:30N 36°46' W 076°18'0 0.0
2018-Jun-05 01:00N 36°46' W 076°18'0 0.0
2018-Jun-05 00:30N 36°46' W 076°18'0 0.0
2018-Jun-05 00:00N 36°46' W 076°18'0 0.0
2018-Jun-04 23:30N 36°46' W 076°18'0 0.0
2018-Jun-04 23:00N 36°46' W 076°18'0 0.0
2018-Jun-04 22:30N 36°46' W 076°18'0 0.0
2018-Jun-04 22:00N 36°46' W 076°18'0 0.0
2018-Jun-04 21:30N 36°46' W 076°18'0 0.0
2018-Jun-04 21:00N 36°46' W 076°18'0 0.0
2018-Jun-04 20:30N 36°46' W 076°18'0 0.0
2018-Jun-04 20:00N 36°46' W 076°18'0 0.0
2018-Jun-04 19:30N 36°46' W 076°18'0 0.0
2018-Jun-04 19:00N 36°46' W 076°18'0 0.0
2018-Jun-04 18:30N 36°46' W 076°18'0 0.0
2018-Jun-04 18:00N 36°46' W 076°18'0 0.0
2018-Jun-04 17:30N 36°46' W 076°18'0 0.0
2018-Jun-04 17:00N 36°46' W 076°18'0 0.0
2018-Jun-04 16:30N 36°46' W 076°18'0 0.0
2018-Jun-04 16:00N 36°46' W 076°18'0 0.0
2018-Jun-04 15:30N 36°46' W 076°18'0 0.0
2018-Jun-04 15:00N 36°46' W 076°18'0 0.0
2018-Jun-04 14:30N 36°46' W 076°18'0 0.0
2018-Jun-04 14:00N 36°46' W 076°18'0 0.0
2018-Jun-04 13:30N 36°46' W 076°18'0 0.0
2018-Jun-04 13:00N 36°46' W 076°18'0 0.0
2018-Jun-04 12:30N 36°46' W 076°18'0 0.0
2018-Jun-04 12:00N 36°46' W 076°18'0 0.0
2018-Jun-04 11:30N 36°46' W 076°18'0 0.0
2018-Jun-04 11:00N 36°46' W 076°18'0 0.0
2018-Jun-04 10:30N 36°46' W 076°18'0 0.0
2018-Jun-04 10:00N 36°46' W 076°18'0 0.0
2018-Jun-04 09:30N 36°46' W 076°18'0 0.0
2018-Jun-04 09:00N 36°46' W 076°18'0 0.0
2018-Jun-04 08:30N 36°46' W 076°18'0 0.0
2018-Jun-04 08:00N 36°46' W 076°18'0 0.0
2018-Jun-04 07:30N 36°46' W 076°18'0 0.0
2018-Jun-04 07:00N 36°46' W 076°18'0 0.0
2018-Jun-04 06:30N 36°46' W 076°18'0 0.0
2018-Jun-04 06:00N 36°46' W 076°18'0 0.0
2018-Jun-04 05:30N 36°46' W 076°18'0 0.0
2018-Jun-04 05:00N 36°46' W 076°18'0 0.0
2018-Jun-04 04:30N 36°46' W 076°18'0 0.0
2018-Jun-04 04:00N 36°46' W 076°18'0 0.0
2018-Jun-04 03:30N 36°46' W 076°18'0 0.0
2018-Jun-04 03:00N 36°46' W 076°18'0 0.0
2018-Jun-04 02:30N 36°46' W 076°18'0 0.0
2018-Jun-04 02:00N 36°46' W 076°18'0 0.0
2018-Jun-04 01:30N 36°46' W 076°18'0 0.0
2018-Jun-04 01:00N 36°46' W 076°18'0 0.0
2018-Jun-04 00:30N 36°46' W 076°18'0 0.0
2018-Jun-04 00:00N 36°46' W 076°18'0 0.0
2018-Jun-03 23:30N 36°46' W 076°18'0 0.0
2018-Jun-03 23:00N 36°46' W 076°18'0 0.0
2018-Jun-03 22:30N 36°46' W 076°18'0 0.0
2018-Jun-03 22:00N 36°46' W 076°18'0 0.0
2018-Jun-03 21:30N 36°46' W 076°18'0 0.0
2018-Jun-03 21:00N 36°46' W 076°18'0 0.0
2018-Jun-03 20:30N 36°46' W 076°18'0 0.0
2018-Jun-03 20:00N 36°46' W 076°18'0 0.0
2018-Jun-03 19:30N 36°46' W 076°18'0 0.0
2018-Jun-03 19:00N 36°46' W 076°18'0 0.0
2018-Jun-03 18:30N 36°46' W 076°18'0 0.0
2018-Jun-03 18:00N 36°46' W 076°18'0 0.0
2018-Jun-03 17:30N 36°46' W 076°18'0 0.0
2018-Jun-03 17:00N 36°46' W 076°18'  

Dump ship's entire track history